sensor_id;sensor_type;location;lat;lon;timestamp;pressure;altitude;pressure_sealevel;temperature;humidity
64544;BME280;50936;51.660;5.616;2023-05-19T00:01:19;102284.59;;;8.95;100.00
64544;BME280;50936;51.660;5.616;2023-05-19T00:03:53;102287.34;;;8.93;100.00
64544;BME280;50936;51.660;5.616;2023-05-19T00:06:30;102288.38;;;8.91;100.00
64544;BME280;50936;51.660;5.616;2023-05-19T00:09:02;102292.94;;;8.89;100.00
64544;BME280;50936;51.660;5.616;2023-05-19T00:11:31;102290.34;;;8.85;100.00
64544;BME280;50936;51.660;5.616;2023-05-19T00:14:03;102291.28;;;8.84;100.00
64544;BME280;50936;51.660;5.616;2023-05-19T00:16:32;102289.59;;;8.82;100.00
64544;BME280;50936;51.660;5.616;2023-05-19T00:19:01;102291.47;;;8.80;100.00
64544;BME280;50936;51.660;5.616;2023-05-19T00:21:30;102290.72;;;8.76;100.00
64544;BME280;50936;51.660;5.616;2023-05-19T00:23:58;102289.09;;;8.72;100.00
64544;BME280;50936;51.660;5.616;2023-05-19T00:26:26;102292.81;;;8.68;100.00
64544;BME280;50936;51.660;5.616;2023-05-19T00:28:59;102285.69;;;8.67;100.00
64544;BME280;50936;51.660;5.616;2023-05-19T00:31:26;102285.78;;;8.64;100.00
64544;BME280;50936;51.660;5.616;2023-05-19T00:33:53;102276.09;;;8.60;100.00
64544;BME280;50936;51.660;5.616;2023-05-19T00:36:21;102271.75;;;8.56;100.00
64544;BME280;50936;51.660;5.616;2023-05-19T00:38:48;102271.00;;;8.52;100.00
64544;BME280;50936;51.660;5.616;2023-05-19T00:41:16;102266.59;;;8.50;100.00
64544;BME280;50936;51.660;5.616;2023-05-19T00:43:43;102264.97;;;8.45;100.00
64544;BME280;50936;51.660;5.616;2023-05-19T00:46:13;102261.53;;;8.40;100.00
64544;BME280;50936;51.660;5.616;2023-05-19T00:48:40;102258.97;;;8.37;100.00
64544;BME280;50936;51.660;5.616;2023-05-19T00:51:10;102259.06;;;8.34;100.00
64544;BME280;50936;51.660;5.616;2023-05-19T00:53:40;102263.75;;;8.29;100.00
64544;BME280;50936;51.660;5.616;2023-05-19T00:56:07;102260.22;;;8.27;100.00
64544;BME280;50936;51.660;5.616;2023-05-19T00:58:35;102254.03;;;8.25;100.00
64544;BME280;50936;51.660;5.616;2023-05-19T01:01:02;102251.44;;;8.22;100.00
64544;BME280;50936;51.660;5.616;2023-05-19T01:03:33;102253.31;;;8.20;100.00
64544;BME280;50936;51.660;5.616;2023-05-19T01:06:03;102259.66;;;8.19;100.00
64544;BME280;50936;51.660;5.616;2023-05-19T01:08:31;102255.19;;;8.18;100.00
64544;BME280;50936;51.660;5.616;2023-05-19T01:11:00;102262.44;;;8.16;100.00
64544;BME280;50936;51.660;5.616;2023-05-19T01:13:28;102267.00;;;8.14;100.00
64544;BME280;50936;51.660;5.616;2023-05-19T01:16:27;102266.19;;;8.12;100.00
64544;BME280;50936;51.660;5.616;2023-05-19T01:19:17;102260.91;;;8.08;100.00
64544;BME280;50936;51.660;5.616;2023-05-19T01:25:33;102265.56;;;8.03;100.00
64544;BME280;50936;51.660;5.616;2023-05-19T01:31:15;102266.63;;;7.99;100.00
64544;BME280;50936;51.660;5.616;2023-05-19T01:33:52;102259.47;;;7.98;100.00
64544;BME280;50936;51.660;5.616;2023-05-19T01:36:21;102264.03;;;7.96;100.00
64544;BME280;50936;51.660;5.616;2023-05-19T01:38:50;102263.16;;;7.96;100.00
64544;BME280;50936;51.660;5.616;2023-05-19T01:41:20;102261.47;;;7.93;100.00
64544;BME280;50936;51.660;5.616;2023-05-19T01:43:50;102259.72;;;7.92;100.00
64544;BME280;50936;51.660;5.616;2023-05-19T01:46:17;102264.28;;;7.90;100.00
64544;BME280;50936;51.660;5.616;2023-05-19T01:48:45;102258.06;;;7.88;100.00
64544;BME280;50936;51.660;5.616;2023-05-19T01:51:13;102259.84;;;7.87;100.00
64544;BME280;50936;51.660;5.616;2023-05-19T01:53:41;102254.56;;;7.86;100.00
64544;BME280;50936;51.660;5.616;2023-05-19T01:56:08;102251.00;;;7.84;100.00
64544;BME280;50936;51.660;5.616;2023-05-19T01:58:55;102244.94;;;7.79;100.00
64544;BME280;50936;51.660;5.616;2023-05-19T02:01:42;102249.50;;;7.77;100.00
64544;BME280;50936;51.660;5.616;2023-05-19T02:04:42;102255.81;;;7.76;100.00
64544;BME280;50936;51.660;5.616;2023-05-19T02:07:28;102245.16;;;7.72;100.00
64544;BME280;50936;51.660;5.616;2023-05-19T02:10:10;102240.72;;;7.71;100.00
64544;BME280;50936;51.660;5.616;2023-05-19T02:12:50;102237.06;;;7.72;100.00
64544;BME280;50936;51.660;5.616;2023-05-19T02:15:29;102237.22;;;7.69;100.00
64544;BME280;50936;51.660;5.616;2023-05-19T02:18:04;102234.44;;;7.71;100.00
64544;BME280;50936;51.660;5.616;2023-05-19T02:20:34;102234.38;;;7.72;100.00
64544;BME280;50936;51.660;5.616;2023-05-19T02:23:01;102235.34;;;7.71;100.00
64544;BME280;50936;51.660;5.616;2023-05-19T02:25:28;102236.22;;;7.72;100.00
64544;BME280;50936;51.660;5.616;2023-05-19T02:27:57;102235.34;;;7.71;100.00
64544;BME280;50936;51.660;5.616;2023-05-19T02:30:28;102238.94;;;7.70;100.00
64544;BME280;50936;51.660;5.616;2023-05-19T02:32:59;102239.00;;;7.69;100.00
64544;BME280;50936;51.660;5.616;2023-05-19T02:35:26;102232.75;;;7.68;100.00
64544;BME280;50936;51.660;5.616;2023-05-19T02:37:53;102236.38;;;7.67;100.00
64544;BME280;50936;51.660;5.616;2023-05-19T02:40:20;102227.53;;;7.64;100.00
64544;BME280;50936;51.660;5.616;2023-05-19T02:42:48;102233.78;;;7.64;100.00
64544;BME280;50936;51.660;5.616;2023-05-19T02:45:15;102226.78;;;7.60;100.00
64544;BME280;50936;51.660;5.616;2023-05-19T02:47:42;102228.59;;;7.58;100.00
64544;BME280;50936;51.660;5.616;2023-05-19T02:50:09;102219.72;;;7.56;100.00
64544;BME280;50936;51.660;5.616;2023-05-19T02:52:36;102223.47;;;7.52;100.00
64544;BME280;50936;51.660;5.616;2023-05-19T02:55:03;102216.38;;;7.49;100.00
64544;BME280;50936;51.660;5.616;2023-05-19T02:57:32;102216.44;;;7.48;100.00
64544;BME280;50936;51.660;5.616;2023-05-19T03:00:00;102221.91;;;7.45;100.00
64544;BME280;50936;51.660;5.616;2023-05-19T03:02:27;102219.28;;;7.43;100.00
64544;BME280;50936;51.660;5.616;2023-05-19T03:04:55;102219.28;;;7.43;100.00
64544;BME280;50936;51.660;5.616;2023-05-19T03:07:22;102218.50;;;7.40;100.00
64544;BME280;50936;51.660;5.616;2023-05-19T03:09:51;102213.25;;;7.37;100.00
64544;BME280;50936;51.660;5.616;2023-05-19T03:12:18;102211.47;;;7.36;100.00
64544;BME280;50936;51.660;5.616;2023-05-19T03:14:45;102216.84;;;7.36;100.00
64544;BME280;50936;51.660;5.616;2023-05-19T03:17:12;102220.50;;;7.35;100.00
64544;BME280;50936;51.660;5.616;2023-05-19T03:19:39;102220.56;;;7.31;100.00
64544;BME280;50936;51.660;5.616;2023-05-19T03:22:07;102220.66;;;7.28;100.00
64544;BME280;50936;51.660;5.616;2023-05-19T03:24:34;102221.63;;;7.27;100.00
64544;BME280;50936;51.660;5.616;2023-05-19T03:27:03;102220.78;;;7.25;100.00
64544;BME280;50936;51.660;5.616;2023-05-19T03:29:31;102224.41;;;7.24;100.00
64544;BME280;50936;51.660;5.616;2023-05-19T03:31:58;102224.41;;;7.24;100.00
64544;BME280;50936;51.660;5.616;2023-05-19T03:34:26;102221.75;;;7.23;100.00
64544;BME280;50936;51.660;5.616;2023-05-19T03:36:53;102234.28;;;7.24;100.00
64544;BME280;50936;51.660;5.616;2023-05-19T03:39:21;102228.00;;;7.23;100.00
64544;BME280;50936;51.660;5.616;2023-05-19T03:41:48;102226.25;;;7.22;100.00
64544;BME280;50936;51.660;5.616;2023-05-19T03:44:15;102232.56;;;7.21;100.00
64544;BME280;50936;51.660;5.616;2023-05-19T03:46:43;102231.63;;;7.22;100.00
64544;BME280;50936;51.660;5.616;2023-05-19T03:49:33;102233.47;;;7.22;100.00
64544;BME280;50936;51.660;5.616;2023-05-19T03:52:22;102246.00;;;7.21;100.00
64544;BME280;50936;51.660;5.616;2023-05-19T03:54:58;102241.44;;;7.23;100.00
64544;BME280;50936;51.660;5.616;2023-05-19T03:57:25;102247.75;;;7.22;100.00
64544;BME280;50936;51.660;5.616;2023-05-19T03:59:52;102243.25;;;7.23;100.00
64544;BME280;50936;51.660;5.616;2023-05-19T04:02:20;102239.63;;;7.25;100.00
64544;BME280;50936;51.660;5.616;2023-05-19T04:04:47;102244.03;;;7.26;100.00
64544;BME280;50936;51.660;5.616;2023-05-19T04:07:14;102245.72;;;7.29;100.00
64544;BME280;50936;51.660;5.616;2023-05-19T04:09:41;102243.94;;;7.29;100.00
64544;BME280;50936;51.660;5.616;2023-05-19T04:12:08;102244.78;;;7.31;100.00
64544;BME280;50936;51.660;5.616;2023-05-19T04:14:35;102242.00;;;7.35;100.00
64544;BME280;50936;51.660;5.616;2023-05-19T04:17:02;102248.06;;;7.40;100.00
64544;BME280;50936;51.660;5.616;2023-05-19T04:19:29;102244.75;;;7.58;100.00
64544;BME280;50936;51.660;5.616;2023-05-19T04:21:57;102241.53;;;7.74;100.00
64544;BME280;50936;51.660;5.616;2023-05-19T04:24:23;102244.88;;;8.05;100.00
64544;BME280;50936;51.660;5.616;2023-05-19T04:26:51;102243.31;;;8.48;100.00
64544;BME280;50936;51.660;5.616;2023-05-19T04:29:19;102243.56;;;8.64;100.00
64544;BME280;50936;51.660;5.616;2023-05-19T04:31:46;102239.84;;;8.69;100.00
64544;BME280;50936;51.660;5.616;2023-05-19T04:34:13;102242.50;;;8.70;100.00
64544;BME280;50936;51.660;5.616;2023-05-19T04:36:39;102237.13;;;9.14;100.00
64544;BME280;50936;51.660;5.616;2023-05-19T04:39:07;102241.47;;;9.39;100.00
64544;BME280;50936;51.660;5.616;2023-05-19T04:41:40;102239.44;;;9.23;100.00
64544;BME280;50936;51.660;5.616;2023-05-19T04:44:10;102242.38;;;9.17;100.00
64544;BME280;50936;51.660;5.616;2023-05-19T04:46:40;102240.09;;;9.06;100.00
64544;BME280;50936;51.660;5.616;2023-05-19T04:49:08;102234.72;;;8.84;100.00
64544;BME280;50936;51.660;5.616;2023-05-19T04:51:41;102235.44;;;8.66;100.00
64544;BME280;50936;51.660;5.616;2023-05-19T04:54:08;102238.94;;;8.68;100.00
64544;BME280;50936;51.660;5.616;2023-05-19T04:56:35;102241.78;;;8.65;100.00
64544;BME280;50936;51.660;5.616;2023-05-19T04:59:03;102241.06;;;8.60;100.00
64544;BME280;50936;51.660;5.616;2023-05-19T05:01:30;102242.09;;;8.57;100.00
64544;BME280;50936;51.660;5.616;2023-05-19T05:04:00;102242.94;;;8.58;100.00
64544;BME280;50936;51.660;5.616;2023-05-19T05:06:29;102239.19;;;8.62;100.00
64544;BME280;50936;51.660;5.616;2023-05-19T05:08:57;102238.06;;;8.67;100.00
64544;BME280;50936;51.660;5.616;2023-05-19T05:11:30;102235.06;;;8.75;100.00
64544;BME280;50936;51.660;5.616;2023-05-19T05:13:59;102243.44;;;8.91;100.00
64544;BME280;50936;51.660;5.616;2023-05-19T05:16:28;102246.78;;;8.98;100.00
64544;BME280;50936;51.660;5.616;2023-05-19T05:18:57;102249.25;;;9.24;100.00
64544;BME280;50936;51.660;5.616;2023-05-19T05:21:24;102253.75;;;9.46;100.00
64544;BME280;50936;51.660;5.616;2023-05-19T05:23:52;102247.56;;;9.64;100.00
64544;BME280;50936;51.660;5.616;2023-05-19T05:26:27;102249.34;;;9.86;100.00
64544;BME280;50936;51.660;5.616;2023-05-19T05:28:59;102249.06;;;9.92;100.00
64544;BME280;50936;51.660;5.616;2023-05-19T05:31:27;102248.38;;;9.87;100.00
64544;BME280;50936;51.660;5.616;2023-05-19T05:33:55;102250.81;;;9.93;100.00
64544;BME280;50936;51.660;5.616;2023-05-19T05:36:26;102248.13;;;9.93;100.00
64544;BME280;50936;51.660;5.616;2023-05-19T05:38:53;102252.97;;;9.85;100.00
64544;BME280;50936;51.660;5.616;2023-05-19T05:41:21;102257.56;;;9.83;100.00
64544;BME280;50936;51.660;5.616;2023-05-19T05:43:50;102257.31;;;9.89;100.00
64544;BME280;50936;51.660;5.616;2023-05-19T05:46:17;102251.91;;;9.89;100.00
64544;BME280;50936;51.660;5.616;2023-05-19T05:48:45;102254.34;;;9.95;100.00
64544;BME280;50936;51.660;5.616;2023-05-19T05:51:12;102249.56;;;10.02;100.00
64544;BME280;50936;51.660;5.616;2023-05-19T05:53:40;102248.16;;;10.12;100.00
64544;BME280;50936;51.660;5.616;2023-05-19T05:56:15;102246.75;;;10.24;100.00
64544;BME280;50936;51.660;5.616;2023-05-19T05:58:47;102246.19;;;10.36;100.00
64544;BME280;50936;51.660;5.616;2023-05-19T06:01:15;102250.09;;;10.50;100.00
64544;BME280;50936;51.660;5.616;2023-05-19T06:03:43;102255.00;;;10.61;100.00
64544;BME280;50936;51.660;5.616;2023-05-19T06:06:14;102247.38;;;10.88;100.00
64544;BME280;50936;51.660;5.616;2023-05-19T06:08:41;102252.34;;;11.16;100.00
64544;BME280;50936;51.660;5.616;2023-05-19T06:11:09;102257.03;;;11.30;100.00
64544;BME280;50936;51.660;5.616;2023-05-19T06:13:38;102257.53;;;11.38;100.00
64544;BME280;50936;51.660;5.616;2023-05-19T06:16:14;102260.56;;;11.49;100.00
64544;BME280;50936;51.660;5.616;2023-05-19T06:18:44;102262.16;;;11.53;100.00
64544;BME280;50936;51.660;5.616;2023-05-19T06:21:11;102263.69;;;11.59;100.00
64544;BME280;50936;51.660;5.616;2023-05-19T06:23:40;102259.16;;;11.77;100.00
64544;BME280;50936;51.660;5.616;2023-05-19T06:26:09;102260.44;;;12.22;100.00
64544;BME280;50936;51.660;5.616;2023-05-19T06:28:36;102264.34;;;12.50;100.00
64544;BME280;50936;51.660;5.616;2023-05-19T06:31:04;102258.25;;;12.62;100.00
64544;BME280;50936;51.660;5.616;2023-05-19T06:33:41;102265.84;;;12.56;98.70
64544;BME280;50936;51.660;5.616;2023-05-19T06:36:08;102260.16;;;12.60;100.00
64544;BME280;50936;51.660;5.616;2023-05-19T06:38:37;102268.50;;;12.73;100.00
64544;BME280;50936;51.660;5.616;2023-05-19T06:41:05;102257.72;;;12.87;99.66
64544;BME280;50936;51.660;5.616;2023-05-19T06:43:32;102261.75;;;12.96;98.99
64544;BME280;50936;51.660;5.616;2023-05-19T06:46:02;102267.28;;;13.10;95.91
64544;BME280;50936;51.660;5.616;2023-05-19T06:48:32;102266.81;;;13.18;92.79
64544;BME280;50936;51.660;5.616;2023-05-19T06:50:59;102269.53;;;13.18;92.85
64544;BME280;50936;51.660;5.616;2023-05-19T06:53:26;102265.00;;;13.19;91.13
64544;BME280;50936;51.660;5.616;2023-05-19T06:55:53;102264.38;;;13.14;92.56
64544;BME280;50936;51.660;5.616;2023-05-19T06:58:30;102262.78;;;13.25;93.07
64544;BME280;50936;51.660;5.616;2023-05-19T07:00:58;102265.19;;;13.62;93.28
64544;BME280;50936;51.660;5.616;2023-05-19T07:03:29;102265.72;;;14.13;92.94
64544;BME280;50936;51.660;5.616;2023-05-19T07:05:57;102271.59;;;14.65;93.05
64544;BME280;50936;51.660;5.616;2023-05-19T07:08:25;102271.22;;;15.39;85.99
64544;BME280;50936;51.660;5.616;2023-05-19T07:10:53;102263.44;;;16.13;80.04
64544;BME280;50936;51.660;5.616;2023-05-19T07:13:23;102265.72;;;16.84;77.46
64544;BME280;50936;51.660;5.616;2023-05-19T07:15:54;102271.69;;;17.50;72.38
64544;BME280;50936;51.660;5.616;2023-05-19T07:18:26;102276.16;;;18.11;67.86
64544;BME280;50936;51.660;5.616;2023-05-19T07:20:57;102274.97;;;18.60;64.41
64544;BME280;50936;51.660;5.616;2023-05-19T07:23:24;102279.94;;;19.00;61.13
64544;BME280;50936;51.660;5.616;2023-05-19T07:25:55;102276.16;;;19.23;59.30
64544;BME280;50936;51.660;5.616;2023-05-19T07:28:22;102274.22;;;19.47;59.01
64544;BME280;50936;51.660;5.616;2023-05-19T07:30:49;102282.22;;;19.82;57.65
64544;BME280;50936;51.660;5.616;2023-05-19T07:33:16;102281.00;;;20.17;54.10
64544;BME280;50936;51.660;5.616;2023-05-19T07:35:43;102279.84;;;20.41;54.25
64544;BME280;50936;51.660;5.616;2023-05-19T07:38:10;102279.59;;;20.74;51.28
64544;BME280;50936;51.660;5.616;2023-05-19T07:40:37;102279.31;;;20.77;50.50
64544;BME280;50936;51.660;5.616;2023-05-19T07:43:04;102279.38;;;20.97;50.08
64544;BME280;50936;51.660;5.616;2023-05-19T07:45:31;102279.28;;;21.08;49.43
64544;BME280;50936;51.660;5.616;2023-05-19T07:47:58;102284.34;;;21.13;49.50
64544;BME280;50936;51.660;5.616;2023-05-19T07:50:25;102282.13;;;21.47;51.15
64544;BME280;50936;51.660;5.616;2023-05-19T07:52:52;102271.13;;;21.96;48.06
64544;BME280;50936;51.660;5.616;2023-05-19T07:55:19;102277.56;;;22.24;46.73
64544;BME280;50936;51.660;5.616;2023-05-19T07:57:49;102270.00;;;22.46;44.83
64544;BME280;50936;51.660;5.616;2023-05-19T08:00:16;102270.72;;;22.48;43.60
64544;BME280;50936;51.660;5.616;2023-05-19T08:02:43;102281.75;;;22.48;45.76
64544;BME280;50936;51.660;5.616;2023-05-19T08:05:11;102272.09;;;22.72;45.56
64544;BME280;50936;51.660;5.616;2023-05-19T08:07:38;102271.03;;;23.00;43.15
64544;BME280;50936;51.660;5.616;2023-05-19T08:10:05;102271.91;;;23.11;40.14
64544;BME280;50936;51.660;5.616;2023-05-19T08:12:32;102263.41;;;22.66;40.97
64544;BME280;50936;51.660;5.616;2023-05-19T08:14:59;102259.63;;;22.20;42.14
64544;BME280;50936;51.660;5.616;2023-05-19T08:17:27;102259.47;;;22.12;42.79
64544;BME280;50936;51.660;5.616;2023-05-19T08:19:54;102254.31;;;22.09;42.11
64544;BME280;50936;51.660;5.616;2023-05-19T08:22:21;102248.47;;;22.12;41.97
64544;BME280;50936;51.660;5.616;2023-05-19T08:24:48;102255.28;;;22.27;42.88
64544;BME280;50936;51.660;5.616;2023-05-19T08:27:17;102242.13;;;22.11;41.32
64544;BME280;50936;51.660;5.616;2023-05-19T08:29:43;102249.38;;;22.03;41.79
64544;BME280;50936;51.660;5.616;2023-05-19T08:32:10;102242.56;;;21.97;42.70
64544;BME280;50936;51.660;5.616;2023-05-19T08:34:39;102232.00;;;22.02;41.29
64544;BME280;50936;51.660;5.616;2023-05-19T08:37:06;102233.91;;;22.02;43.24
64544;BME280;50936;51.660;5.616;2023-05-19T08:39:33;102234.34;;;21.87;42.76
64544;BME280;50936;51.660;5.616;2023-05-19T08:42:00;102235.38;;;21.77;43.68
64544;BME280;50936;51.660;5.616;2023-05-19T08:44:28;102233.31;;;21.88;42.09
64544;BME280;50936;51.660;5.616;2023-05-19T08:47:00;102230.56;;;21.88;40.82
64544;BME280;50936;51.660;5.616;2023-05-19T08:49:32;102222.78;;;21.74;42.13
64544;BME280;50936;51.660;5.616;2023-05-19T08:52:34;102222.34;;;21.79;41.49
64544;BME280;50936;51.660;5.616;2023-05-19T08:58:21;102219.50;;;22.18;38.88
64544;BME280;50936;51.660;5.616;2023-05-19T09:00:49;102211.38;;;22.16;40.19
64544;BME280;50936;51.660;5.616;2023-05-19T09:03:17;102210.50;;;22.25;40.27
64544;BME280;50936;51.660;5.616;2023-05-19T09:05:48;102210.75;;;22.42;37.63
64544;BME280;50936;51.660;5.616;2023-05-19T09:08:15;102220.66;;;22.35;38.30
64544;BME280;50936;51.660;5.616;2023-05-19T09:10:42;102212.75;;;22.49;37.50
64544;BME280;50936;51.660;5.616;2023-05-19T09:13:09;102199.78;;;22.32;36.69
64544;BME280;50936;51.660;5.616;2023-05-19T09:15:38;102205.28;;;22.32;36.54
64544;BME280;50936;51.660;5.616;2023-05-19T09:18:08;102210.97;;;22.58;36.88
64544;BME280;50936;51.660;5.616;2023-05-19T09:20:38;102197.09;;;22.50;35.45
64544;BME280;50936;51.660;5.616;2023-05-19T09:23:11;102199.66;;;22.34;37.88
64544;BME280;50936;51.660;5.616;2023-05-19T09:25:49;102193.31;;;22.51;37.96
64544;BME280;50936;51.660;5.616;2023-05-19T09:33:27;102201.84;;;22.58;34.09
64544;BME280;50936;51.660;5.616;2023-05-19T09:35:55;102191.19;;;21.98;35.32
64544;BME280;50936;51.660;5.616;2023-05-19T09:38:23;102187.78;;;21.76;35.93
64544;BME280;50936;51.660;5.616;2023-05-19T09:40:55;102187.03;;;21.74;36.24
64544;BME280;50936;51.660;5.616;2023-05-19T09:43:29;102185.53;;;22.09;35.54
64544;BME280;50936;51.660;5.616;2023-05-19T09:48:34;102181.72;;;22.57;36.47
64544;BME280;50936;51.660;5.616;2023-05-19T09:51:03;102198.81;;;22.51;34.71
64544;BME280;50936;51.660;5.616;2023-05-19T09:53:33;102194.72;;;22.18;35.07
64544;BME280;50936;51.660;5.616;2023-05-19T09:56:01;102193.78;;;21.99;35.53
64544;BME280;50936;51.660;5.616;2023-05-19T09:58:33;102179.63;;;21.84;36.57
64544;BME280;50936;51.660;5.616;2023-05-19T10:01:02;102185.84;;;21.86;36.46
64544;BME280;50936;51.660;5.616;2023-05-19T10:03:30;102185.41;;;21.81;36.13
64544;BME280;50936;51.660;5.616;2023-05-19T10:06:02;102184.59;;;21.71;36.28
64544;BME280;50936;51.660;5.616;2023-05-19T10:08:32;102187.59;;;21.87;38.05
64544;BME280;50936;51.660;5.616;2023-05-19T10:11:00;102187.66;;;22.15;36.44
64544;BME280;50936;51.660;5.616;2023-05-19T10:13:29;102185.25;;;22.40;37.00
64544;BME280;50936;51.660;5.616;2023-05-19T10:15:57;102195.06;;;22.52;37.21
64544;BME280;50936;51.660;5.616;2023-05-19T10:18:26;102183.53;;;22.66;36.01
64544;BME280;50936;51.660;5.616;2023-05-19T10:20:55;102192.25;;;22.34;36.29
64544;BME280;50936;51.660;5.616;2023-05-19T10:23:24;102179.28;;;22.07;37.17
64544;BME280;50936;51.660;5.616;2023-05-19T10:25:55;102179.38;;;21.68;36.65
64544;BME280;50936;51.660;5.616;2023-05-19T10:28:38;102167.41;;;21.49;37.57
64544;BME280;50936;51.660;5.616;2023-05-19T10:31:12;102169.81;;;21.72;37.71
64544;BME280;50936;51.660;5.616;2023-05-19T10:37:23;102161.16;;;21.67;37.15
64544;BME280;50936;51.660;5.616;2023-05-19T10:40:11;102173.88;;;21.68;37.36
64544;BME280;50936;51.660;5.616;2023-05-19T10:45:46;102159.97;;;21.79;37.46
64544;BME280;50936;51.660;5.616;2023-05-19T10:48:15;102152.09;;;22.04;36.33
64544;BME280;50936;51.660;5.616;2023-05-19T10:50:44;102157.22;;;22.26;35.92
64544;BME280;50936;51.660;5.616;2023-05-19T10:53:16;102162.81;;;22.44;35.19
64544;BME280;50936;51.660;5.616;2023-05-19T10:55:49;102155.91;;;22.58;34.57
64544;BME280;50936;51.660;5.616;2023-05-19T11:01:14;102162.53;;;22.65;34.67
64544;BME280;50936;51.660;5.616;2023-05-19T11:03:53;102159.06;;;22.63;34.60
64544;BME280;50936;51.660;5.616;2023-05-19T11:06:30;102159.25;;;22.80;35.00
64544;BME280;50936;51.660;5.616;2023-05-19T11:09:00;102152.09;;;22.87;33.37
64544;BME280;50936;51.660;5.616;2023-05-19T11:11:44;102160.53;;;22.58;32.60
64544;BME280;50936;51.660;5.616;2023-05-19T11:14:22;102157.16;;;22.46;34.32
64544;BME280;50936;51.660;5.616;2023-05-19T11:16:55;102158.72;;;22.48;34.00
64544;BME280;50936;51.660;5.616;2023-05-19T11:19:30;102146.34;;;22.80;34.34
64544;BME280;50936;51.660;5.616;2023-05-19T11:22:10;102154.91;;;23.23;33.51
64544;BME280;50936;51.660;5.616;2023-05-19T11:24:44;102141.69;;;23.71;34.71
64544;BME280;50936;51.660;5.616;2023-05-19T11:27:29;102155.25;;;24.16;31.70
64544;BME280;50936;51.660;5.616;2023-05-19T11:32:37;102145.16;;;23.99;32.31
64544;BME280;50936;51.660;5.616;2023-05-19T11:35:05;102148.06;;;23.71;31.44
64544;BME280;50936;51.660;5.616;2023-05-19T11:37:34;102145.25;;;23.63;32.90
64544;BME280;50936;51.660;5.616;2023-05-19T11:40:02;102126.53;;;24.01;33.05
64544;BME280;50936;51.660;5.616;2023-05-19T11:42:35;102139.25;;;24.28;32.54
64544;BME280;50936;51.660;5.616;2023-05-19T11:45:03;102146.44;;;24.47;31.84
64544;BME280;50936;51.660;5.616;2023-05-19T11:47:31;102128.59;;;24.41;30.39
64544;BME280;50936;51.660;5.616;2023-05-19T11:50:17;102120.47;;;24.32;30.96
64544;BME280;50936;51.660;5.616;2023-05-19T11:52:46;102129.81;;;24.31;30.49
64544;BME280;50936;51.660;5.616;2023-05-19T11:55:17;102132.22;;;24.34;31.22
64544;BME280;50936;51.660;5.616;2023-05-19T12:00:33;102127.53;;;24.69;31.58
64544;BME280;50936;51.660;5.616;2023-05-19T12:03:05;102123.97;;;25.17;29.75
64544;BME280;50936;51.660;5.616;2023-05-19T12:05:41;102123.81;;;25.19;29.61
64544;BME280;50936;51.660;5.616;2023-05-19T12:08:15;102117.97;;;25.47;30.44
64544;BME280;50936;51.660;5.616;2023-05-19T12:10:46;102110.63;;;25.95;27.82
64544;BME280;50936;51.660;5.616;2023-05-19T12:13:17;102112.38;;;25.96;28.61
64544;BME280;50936;51.660;5.616;2023-05-19T12:15:45;102109.56;;;25.88;28.74
64544;BME280;50936;51.660;5.616;2023-05-19T12:18:12;102108.19;;;25.92;28.35
64544;BME280;50936;51.660;5.616;2023-05-19T12:20:39;102107.56;;;25.73;28.29
64544;BME280;50936;51.660;5.616;2023-05-19T12:23:06;102106.91;;;25.47;28.76
64544;BME280;50936;51.660;5.616;2023-05-19T12:25:34;102108.28;;;25.34;29.54
64544;BME280;50936;51.660;5.616;2023-05-19T12:28:01;102098.94;;;25.44;28.95
64544;BME280;50936;51.660;5.616;2023-05-19T12:30:30;102090.84;;;25.34;28.64
64544;BME280;50936;51.660;5.616;2023-05-19T12:33:00;102096.84;;;25.05;29.16
64544;BME280;50936;51.660;5.616;2023-05-19T12:35:29;102087.16;;;24.92;29.43
64544;BME280;50936;51.660;5.616;2023-05-19T12:38:03;102093.41;;;25.03;29.54
64544;BME280;50936;51.660;5.616;2023-05-19T12:40:35;102102.56;;;24.95;29.90
64544;BME280;50936;51.660;5.616;2023-05-19T12:43:07;102097.66;;;24.64;29.79
64544;BME280;50936;51.660;5.616;2023-05-19T12:45:43;102093.78;;;24.49;30.76
64544;BME280;50936;51.660;5.616;2023-05-19T12:48:11;102086.78;;;24.63;31.17
64544;BME280;50936;51.660;5.616;2023-05-19T12:50:38;102093.03;;;24.97;30.28
64544;BME280;50936;51.660;5.616;2023-05-19T12:53:10;102095.03;;;24.54;30.14
64544;BME280;50936;51.660;5.616;2023-05-19T12:55:42;102088.66;;;24.11;31.17
64544;BME280;50936;51.660;5.616;2023-05-19T12:58:10;102085.91;;;24.19;30.39
64544;BME280;50936;51.660;5.616;2023-05-19T13:00:42;102076.88;;;24.44;30.13
64544;BME280;50936;51.660;5.616;2023-05-19T13:03:18;102080.25;;;24.88;29.18
64544;BME280;50936;51.660;5.616;2023-05-19T13:05:48;102076.47;;;24.89;28.55
64544;BME280;50936;51.660;5.616;2023-05-19T13:08:17;102078.16;;;24.74;28.79
64544;BME280;50936;51.660;5.616;2023-05-19T13:10:47;102072.63;;;24.74;29.39
64544;BME280;50936;51.660;5.616;2023-05-19T13:13:16;102078.53;;;25.04;29.24
64544;BME280;50936;51.660;5.616;2023-05-19T13:15:45;102064.03;;;25.34;29.95
64544;BME280;50936;51.660;5.616;2023-05-19T13:18:15;102074.03;;;25.44;29.58
64544;BME280;50936;51.660;5.616;2023-05-19T13:20:44;102075.94;;;25.35;29.27
64544;BME280;50936;51.660;5.616;2023-05-19T13:23:13;102064.88;;;25.35;29.87
64544;BME280;50936;51.660;5.616;2023-05-19T13:25:42;102072.66;;;25.56;29.58
64544;BME280;50936;51.660;5.616;2023-05-19T13:28:09;102062.56;;;25.80;28.42
64544;BME280;50936;51.660;5.616;2023-05-19T13:30:38;102061.63;;;26.12;29.71
64544;BME280;50936;51.660;5.616;2023-05-19T13:33:06;102055.97;;;26.60;27.85
64544;BME280;50936;51.660;5.616;2023-05-19T13:35:33;102060.63;;;26.67;28.10
64544;BME280;50936;51.660;5.616;2023-05-19T13:38:05;102059.34;;;26.47;27.31